createdAt,value
2024-04-09T00:02:54.734Z,16.40
2024-04-09T00:06:16.880Z,16.30
2024-04-09T00:09:41.447Z,16.30
2024-04-09T00:13:03.595Z,16.10
2024-04-09T00:16:29.069Z,16.10
2024-04-09T00:19:52.452Z,16.30
2024-04-09T00:23:14.219Z,16.50
2024-04-09T00:26:38.594Z,16.70
2024-04-09T00:30:00.407Z,17.10
2024-04-09T00:33:22.327Z,17.30
2024-04-09T00:36:44.269Z,17.50
2024-04-09T00:40:06.771Z,17.60
2024-04-09T00:43:31.171Z,17.70
2024-04-09T00:46:52.937Z,17.70
2024-04-09T00:50:14.759Z,17.60
2024-04-09T00:53:37.037Z,17.50
2024-04-09T00:56:58.988Z,17.30
2024-04-09T01:00:23.524Z,17.20
2024-04-09T01:03:45.644Z,17.20
2024-04-09T01:07:07.554Z,17.10
2024-04-09T01:10:29.354Z,17.10
2024-04-09T01:13:51.154Z,17.10
2024-04-09T01:17:15.618Z,16.90
2024-04-09T01:20:37.447Z,16.90
2024-04-09T01:24:01.919Z,16.80
2024-04-09T01:27:23.786Z,16.90
2024-04-09T01:30:45.648Z,16.90
2024-04-09T01:34:07.758Z,16.90
2024-04-09T01:37:29.623Z,16.90
2024-04-09T01:40:54.007Z,16.90
2024-04-09T01:44:15.816Z,16.90
2024-04-09T01:47:37.689Z,16.90
2024-04-09T01:50:59.589Z,16.80
2024-04-09T01:54:21.426Z,16.70
2024-04-09T01:57:45.865Z,16.70
2024-04-09T02:01:07.973Z,16.70
2024-04-09T02:04:29.913Z,16.70
2024-04-09T02:07:51.762Z,16.70
2024-04-09T02:11:13.597Z,16.60
2024-04-09T02:14:38.102Z,16.50
2024-04-09T02:17:59.957Z,16.40
2024-04-09T02:21:22.064Z,16.30
2024-04-09T02:24:43.954Z,16.30
2024-04-09T02:28:05.842Z,16.20
2024-04-09T02:31:30.382Z,16.20
2024-04-09T02:34:52.209Z,16.20
2024-04-09T02:38:14.017Z,16.10
2024-04-09T02:41:35.783Z,16.10
2024-04-09T02:44:58.435Z,16.00
2024-04-09T02:48:22.979Z,16.00
2024-04-09T02:51:44.901Z,15.80
2024-04-09T02:55:06.941Z,15.70
2024-04-09T02:58:28.887Z,15.60
2024-04-09T03:01:50.794Z,15.50
2024-04-09T03:05:15.297Z,15.50
2024-04-09T03:08:37.203Z,15.50
2024-04-09T03:12:01.313Z,15.50
2024-04-09T03:15:24.090Z,15.60
2024-04-09T03:18:46.499Z,15.50
2024-04-09T03:22:11.067Z,15.50
2024-04-09T03:25:32.844Z,15.40
2024-04-09T03:28:54.645Z,15.40
2024-04-09T03:32:16.475Z,15.40
2024-04-09T03:35:38.236Z,15.40
2024-04-09T03:39:02.683Z,15.40
2024-04-09T03:42:24.566Z,15.30
2024-04-09T03:45:59.010Z,15.20
2024-04-09T03:49:21.072Z,15.20
2024-04-09T03:52:42.898Z,15.30
2024-04-09T03:56:07.675Z,15.40
2024-04-09T03:59:29.471Z,15.50
2024-04-09T04:02:51.277Z,15.70
2024-04-09T04:06:13.510Z,15.60
2024-04-09T04:09:35.405Z,15.60
2024-04-09T04:12:59.775Z,15.40
2024-04-09T04:16:21.562Z,15.30
2024-04-09T04:19:43.364Z,15.10
2024-04-09T04:23:05.151Z,15.00
2024-04-09T04:26:27.621Z,14.80
2024-04-09T04:29:52.082Z,14.70
2024-04-09T04:33:13.967Z,14.60
2024-04-09T04:36:35.879Z,14.50
2024-04-09T04:39:57.737Z,14.30
2024-04-09T04:43:19.520Z,14.30
2024-04-09T04:46:43.935Z,14.30
2024-04-09T04:50:06.124Z,14.30
2024-04-09T04:53:27.921Z,14.30
2024-04-09T04:56:49.695Z,14.20
2024-04-09T05:00:11.677Z,14.20
2024-04-09T05:03:36.206Z,14.10
2024-04-09T05:06:58.022Z,14.00
2024-04-09T05:10:19.846Z,14.00
2024-04-09T05:13:41.625Z,14.10
2024-04-09T05:17:03.481Z,14.20
2024-04-09T05:20:27.895Z,14.30
2024-04-09T05:23:49.665Z,14.50
2024-04-09T05:27:11.494Z,14.60
2024-04-09T05:30:33.368Z,14.90
2024-04-09T05:33:55.277Z,15.10
2024-04-09T05:37:19.781Z,15.40
2024-04-09T05:40:41.656Z,15.60
2024-04-09T05:44:03.495Z,15.80
2024-04-09T05:47:25.373Z,15.90
2024-04-09T05:50:47.234Z,16.10
2024-04-09T05:54:11.633Z,16.50
2024-04-09T05:57:33.550Z,16.80
2024-04-09T06:00:55.626Z,17.20
2024-04-09T06:04:17.800Z,17.80
2024-04-09T06:07:39.844Z,18.40
2024-04-09T06:11:04.347Z,19.00
2024-04-09T06:14:26.142Z,19.40
2024-04-09T06:17:48.114Z,19.50
2024-04-09T06:21:10.052Z,19.40
2024-04-09T06:24:31.866Z,19.30
2024-04-09T06:27:56.322Z,19.50
2024-04-09T06:31:18.306Z,19.90
2024-04-09T06:34:40.110Z,20.50
2024-04-09T06:38:01.931Z,20.60
2024-04-09T06:41:23.687Z,20.40
2024-04-09T06:44:48.049Z,20.70
2024-04-09T06:48:09.909Z,22.20
2024-04-09T06:51:31.732Z,24.00
2024-04-09T06:54:53.568Z,24.00
2024-04-09T06:58:15.401Z,23.80
2024-04-09T07:01:39.995Z,24.50
2024-04-09T07:05:01.840Z,26.40
2024-04-09T07:08:23.651Z,26.60
2024-04-09T07:11:45.927Z,26.20
2024-04-09T07:15:08.107Z,27.00
2024-04-09T07:18:32.611Z,28.20
2024-04-09T07:21:54.552Z,28.80
2024-04-09T07:25:16.374Z,27.10
2024-04-09T07:28:38.185Z,26.30
2024-04-09T07:31:59.989Z,25.40
2024-04-09T07:35:24.414Z,23.70
2024-04-09T07:38:46.201Z,22.50
2024-04-09T07:42:08.323Z,21.10
2024-04-09T07:45:30.194Z,20.00
2024-04-09T07:48:52.169Z,19.10
2024-04-09T07:52:16.668Z,18.40
2024-04-09T07:55:38.595Z,18.20
2024-04-09T07:59:00.409Z,18.00
2024-04-09T08:02:22.433Z,17.70
2024-04-09T08:05:44.347Z,17.30
2024-04-09T08:09:08.940Z,17.20
2024-04-09T08:12:31.060Z,17.00
2024-04-09T08:15:52.931Z,16.60
2024-04-09T08:19:14.879Z,15.90
2024-04-09T08:22:36.730Z,15.30
2024-04-09T08:26:01.232Z,14.70
2024-04-09T08:29:23.020Z,14.20
2024-04-09T08:32:45.558Z,13.90
2024-04-09T08:36:07.602Z,13.70
2024-04-09T08:39:29.606Z,13.40
2024-04-09T08:43:00.389Z,13.30
2024-04-09T08:46:22.532Z,13.20
2024-04-09T08:49:44.841Z,13.00
2024-04-09T08:53:07.335Z,12.80
2024-04-09T08:56:29.239Z,12.70
2024-04-09T08:59:53.716Z,12.70
2024-04-09T09:03:15.733Z,12.60
2024-04-09T09:06:50.376Z,12.50
2024-04-09T09:10:13.272Z,12.50
2024-04-09T09:13:35.367Z,12.60
2024-04-09T09:17:03.783Z,12.60
2024-04-09T09:20:29.102Z,12.50
2024-04-09T09:23:59.258Z,12.50
2024-04-09T09:27:22.264Z,12.40
2024-04-09T09:30:45.125Z,12.20
2024-04-09T09:34:14.404Z,12.20
2024-04-09T09:37:36.587Z,12.20
2024-04-09T09:41:00.623Z,12.30
2024-04-09T09:44:22.454Z,12.40
2024-04-09T09:47:44.669Z,12.30
2024-04-09T09:51:09.322Z,12.40
2024-04-09T09:54:31.299Z,12.50
2024-04-09T09:57:56.358Z,12.70
2024-04-09T10:01:21.277Z,12.90
2024-04-09T10:04:44.947Z,13.20
2024-04-09T10:08:17.988Z,13.10
2024-04-09T10:11:43.013Z,12.90
2024-04-09T10:15:05.568Z,12.80
2024-04-09T10:18:28.237Z,12.70
2024-04-09T10:21:51.013Z,13.00
2024-04-09T10:25:18.723Z,13.00
2024-04-09T10:28:40.574Z,13.50
2024-04-09T10:32:12.475Z,14.00
2024-04-09T10:35:34.445Z,14.00
2024-04-09T10:38:56.882Z,13.70
2024-04-09T10:42:21.574Z,13.00
2024-04-09T10:45:52.455Z,12.50
2024-04-09T10:49:22.141Z,12.20
2024-04-09T10:52:46.211Z,12.20
2024-04-09T10:56:08.018Z,12.30
2024-04-09T10:59:32.640Z,12.20
2024-04-09T11:02:54.483Z,12.30
2024-04-09T11:06:16.576Z,12.20
2024-04-09T11:09:38.668Z,12.20
2024-04-09T11:13:00.599Z,12.30
2024-04-09T11:16:25.030Z,12.50
2024-04-09T11:19:50.193Z,12.60
2024-04-09T11:23:12.561Z,12.60
2024-04-09T11:26:35.021Z,12.60
2024-04-09T11:29:56.891Z,12.40
2024-04-09T11:33:21.513Z,12.10
2024-04-09T11:36:46.782Z,12.00
2024-04-09T11:40:08.918Z,11.90
2024-04-09T11:43:31.633Z,11.60
2024-04-09T11:46:53.589Z,11.30
2024-04-09T11:50:18.241Z,11.10
2024-04-09T11:53:45.435Z,11.00
2024-04-09T11:57:07.587Z,11.00
2024-04-09T12:00:31.175Z,11.20
2024-04-09T12:03:53.498Z,11.30
2024-04-09T12:07:17.961Z,11.40
2024-04-09T12:10:40.109Z,11.50
2024-04-09T12:14:01.941Z,11.40
2024-04-09T12:17:23.898Z,11.40
2024-04-09T12:20:45.813Z,11.40
2024-04-09T12:24:11.719Z,11.20
2024-04-09T12:27:33.804Z,11.10
2024-04-09T12:30:56.083Z,11.20
2024-04-09T12:34:18.361Z,11.20
2024-04-09T12:37:40.421Z,11.10
2024-04-09T12:41:04.829Z,11.10
2024-04-09T12:44:26.607Z,11.10
2024-04-09T12:47:48.992Z,11.10
2024-04-09T12:51:10.964Z,11.10
2024-04-09T12:54:32.988Z,11.20
2024-04-09T12:57:59.001Z,11.30
2024-04-09T13:01:30.428Z,11.30
2024-04-09T13:04:53.390Z,11.30
2024-04-09T13:08:15.557Z,11.30
2024-04-09T13:11:39.729Z,11.30
2024-04-09T13:18:29.512Z,10.90
2024-04-09T13:21:51.611Z,10.80
2024-04-09T13:25:13.396Z,10.60
2024-04-09T13:28:37.343Z,10.60
2024-04-09T13:32:03.025Z,10.70
2024-04-09T13:35:24.896Z,10.90
2024-04-09T13:38:47.015Z,11.00
2024-04-09T13:42:08.806Z,11.00
2024-04-09T13:45:32.082Z,11.00
2024-04-09T13:48:56.550Z,11.10
2024-04-09T13:52:18.453Z,11.30
2024-04-09T13:55:40.297Z,11.40
2024-04-09T13:59:02.177Z,11.60
2024-04-09T14:02:24.491Z,11.70
2024-04-09T14:05:49.181Z,11.50
2024-04-09T14:09:11.273Z,11.30
2024-04-09T14:12:34.087Z,11.10
2024-04-09T14:15:56.615Z,11.00
2024-04-09T14:19:19.067Z,11.00
2024-04-09T14:22:44.296Z,10.90
2024-04-09T14:26:09.832Z,10.80
2024-04-09T14:29:32.746Z,10.80
2024-04-09T14:32:54.679Z,10.90
2024-04-09T14:36:16.524Z,10.90
2024-04-09T14:39:41.098Z,10.70
2024-04-09T14:43:03.024Z,10.50
2024-04-09T14:46:24.869Z,10.40
2024-04-09T14:49:46.757Z,10.40
2024-04-09T14:53:10.041Z,10.60
2024-04-09T14:56:34.574Z,10.90
2024-04-09T15:00:00.523Z,11.10
2024-04-09T15:03:25.195Z,11.10
2024-04-09T15:06:48.146Z,11.30
2024-04-09T15:10:10.316Z,11.40
2024-04-09T15:13:35.042Z,11.50
2024-04-09T15:16:57.557Z,11.60
2024-04-09T15:20:19.772Z,11.60
2024-04-09T15:23:41.990Z,11.50
2024-04-09T15:27:04.887Z,11.50
2024-04-09T15:30:29.489Z,11.50
2024-04-09T15:33:53.513Z,11.40
2024-04-09T15:37:15.669Z,11.40
2024-04-09T15:40:37.491Z,11.40
2024-04-09T15:43:59.374Z,11.40
2024-04-09T15:47:24.118Z,11.30
2024-04-09T15:50:46.172Z,11.20
2024-04-09T15:54:07.972Z,11.20
2024-04-09T15:57:30.359Z,11.20
2024-04-09T16:00:52.144Z,11.10
2024-04-09T16:04:16.769Z,11.00
2024-04-09T16:07:39.163Z,10.90
2024-04-09T16:11:01.070Z,10.90
2024-04-09T16:14:22.979Z,11.00
2024-04-09T16:17:46.187Z,11.10
2024-04-09T16:21:10.671Z,11.00
2024-04-09T16:24:32.918Z,10.90
2024-04-09T16:27:56.337Z,10.90
2024-04-09T16:31:18.286Z,10.80
2024-04-09T16:34:40.134Z,10.70
2024-04-09T16:38:04.766Z,10.50
2024-04-09T16:41:56.415Z,10.30
2024-04-09T16:45:18.869Z,10.20
2024-04-09T16:48:40.780Z,10.00
2024-04-09T16:52:02.669Z,9.90
2024-04-09T16:55:27.064Z,9.90
2024-04-09T16:58:48.844Z,9.80
2024-04-09T17:02:10.652Z,9.70
2024-04-09T17:05:32.545Z,9.60
2024-04-09T17:08:54.525Z,9.60
2024-04-09T17:12:18.982Z,9.60
2024-04-09T17:15:40.913Z,9.50
2024-04-09T17:19:02.789Z,9.50
2024-04-09T17:22:24.636Z,9.50
2024-04-09T17:25:46.579Z,9.40
2024-04-09T17:29:11.121Z,9.40
2024-04-09T17:32:34.570Z,9.40
2024-04-09T17:35:56.678Z,9.40
2024-04-09T17:39:18.497Z,9.40
2024-04-09T17:42:40.268Z,9.40
2024-04-09T17:46:04.730Z,9.30
2024-04-09T17:49:26.760Z,9.40
2024-04-09T17:52:48.893Z,9.40
2024-04-09T17:56:12.287Z,9.40
2024-04-09T17:59:34.591Z,9.40
2024-04-09T18:02:59.250Z,9.40
2024-04-09T18:06:21.302Z,9.40
2024-04-09T18:09:43.114Z,9.30
2024-04-09T18:13:04.895Z,9.30
2024-04-09T18:16:26.675Z,9.10
2024-04-09T18:19:51.208Z,9.10
2024-04-09T18:23:13.060Z,9.00
2024-04-09T18:26:34.998Z,9.00
2024-04-09T18:29:57.255Z,9.00
2024-04-09T18:33:19.143Z,9.00
2024-04-09T18:36:43.749Z,9.00
2024-04-09T18:40:06.003Z,8.90
2024-04-09T18:43:28.146Z,8.90
2024-04-09T18:46:50.013Z,8.90
2024-04-09T18:50:13.091Z,8.90
2024-04-09T18:53:37.730Z,8.90
2024-04-09T18:56:59.538Z,8.90
2024-04-09T19:00:21.324Z,8.90
2024-04-09T19:03:43.178Z,8.90
2024-04-09T19:07:05.085Z,8.90
2024-04-09T19:10:30.324Z,8.90
2024-04-09T19:13:52.175Z,8.90
2024-04-09T19:17:14.234Z,8.90
2024-04-09T19:20:36.693Z,8.80
2024-04-09T19:23:58.814Z,8.80
2024-04-09T19:27:23.266Z,8.80
2024-04-09T19:30:45.015Z,8.80
2024-04-09T19:34:08.678Z,8.80
2024-04-09T19:37:31.504Z,8.80
2024-04-09T19:40:53.357Z,8.70
2024-04-09T19:44:19.616Z,8.70
2024-04-09T19:47:41.978Z,8.70
2024-04-09T19:51:04.094Z,8.70
2024-04-09T19:54:26.055Z,8.70
2024-04-09T19:57:47.885Z,8.80
2024-04-09T20:01:12.412Z,8.80
2024-04-09T20:04:34.974Z,8.80
2024-04-09T20:07:56.869Z,8.70
2024-04-09T20:11:19.428Z,8.70
2024-04-09T20:14:41.427Z,8.70
2024-04-09T20:18:07.124Z,8.70
2024-04-09T20:21:29.056Z,8.70
2024-04-09T20:24:50.923Z,8.70
2024-04-09T20:28:12.746Z,8.70
2024-04-09T20:31:34.628Z,8.70
2024-04-09T20:34:59.046Z,8.70
2024-04-09T20:38:20.917Z,8.60
2024-04-09T20:41:42.731Z,8.70
2024-04-09T20:45:05.602Z,8.60
2024-04-09T20:48:27.873Z,8.70
2024-04-09T20:51:53.889Z,8.70
2024-04-09T20:55:15.740Z,8.80
2024-04-09T20:58:37.536Z,8.70
2024-04-09T21:01:59.334Z,8.80
2024-04-09T21:05:21.233Z,8.80
2024-04-09T21:08:45.728Z,8.80
2024-04-09T21:12:07.880Z,8.80
2024-04-09T21:15:29.746Z,8.70
2024-04-09T21:18:52.009Z,8.70
2024-04-09T21:22:14.012Z,8.70
2024-04-09T21:25:38.579Z,8.60
2024-04-09T21:29:00.437Z,8.70
2024-04-09T21:32:22.377Z,8.70
2024-04-09T21:35:44.356Z,8.70
2024-04-09T21:39:06.371Z,8.60
2024-04-09T21:42:30.806Z,8.60
2024-04-09T21:45:55.177Z,8.60
2024-04-09T21:49:23.457Z,8.60
2024-04-09T21:52:45.535Z,8.50
2024-04-09T21:56:07.807Z,8.50
2024-04-09T21:59:32.355Z,8.40
2024-04-09T22:03:05.038Z,8.40
2024-04-09T22:06:28.072Z,8.40
2024-04-09T22:09:50.353Z,8.40
2024-04-09T22:13:12.371Z,8.30
2024-04-09T22:16:36.735Z,8.30
2024-04-09T22:19:58.517Z,8.20
2024-04-09T22:23:20.347Z,8.20
2024-04-09T22:26:42.387Z,8.20
2024-04-09T22:30:04.507Z,8.10
2024-04-09T22:33:29.735Z,8.10
2024-04-09T22:36:51.655Z,8.10
2024-04-09T22:40:13.650Z,8.10
2024-04-09T22:43:35.508Z,8.10
2024-04-09T22:46:57.515Z,8.10
2024-04-09T22:50:22.090Z,8.20
2024-04-09T22:53:43.934Z,8.10
2024-04-09T22:57:06.324Z,8.20
2024-04-09T23:00:28.349Z,8.20
2024-04-09T23:03:50.272Z,8.20
2024-04-09T23:07:15.548Z,8.20
2024-04-09T23:10:37.493Z,8.20
2024-04-09T23:13:59.415Z,8.20
2024-04-09T23:17:21.234Z,8.20
2024-04-09T23:20:43.165Z,8.20
2024-04-09T23:24:07.662Z,8.20
2024-04-09T23:27:29.459Z,8.20
2024-04-09T23:30:51.281Z,8.10
2024-04-09T23:34:13.230Z,8.10
2024-04-09T23:37:35.135Z,8.10
2024-04-09T23:41:00.831Z,8.10
2024-04-09T23:44:22.673Z,8.10
2024-04-09T23:47:44.681Z,8.00
2024-04-09T23:51:07.079Z,8.00
2024-04-09T23:54:28.876Z,7.90
2024-04-09T23:57:53.263Z,7.80
